createdAt,value
2023-01-13T00:01:26.277Z,12.04
2023-01-13T00:03:53.390Z,12.03
2023-01-13T00:06:22.816Z,12.03
2023-01-13T00:08:50.643Z,12.03
2023-01-13T00:11:18.165Z,12.04
2023-01-13T00:13:44.709Z,12.02
2023-01-13T00:16:15.664Z,12.02
2023-01-13T00:18:43.130Z,12.01
2023-01-13T00:21:15.713Z,12.02
2023-01-13T00:23:43.162Z,12.01
2023-01-13T00:26:13.053Z,12.03
2023-01-13T00:28:39.789Z,12.04
2023-01-13T00:31:08.997Z,12.02
2023-01-13T00:33:35.786Z,12.06
2023-01-13T00:36:04.116Z,12.01
2023-01-13T00:38:32.085Z,12.05
2023-01-13T00:41:00.172Z,12.06
2023-01-13T00:43:28.787Z,12.07
2023-01-13T00:45:55.736Z,12.08
2023-01-13T00:48:24.108Z,12.11
2023-01-13T00:50:56.439Z,12.14
2023-01-13T00:53:22.999Z,12.16
2023-01-13T00:55:49.560Z,12.16
2023-01-13T00:58:16.155Z,12.15
2023-01-13T01:00:42.763Z,12.16
2023-01-13T01:03:12.337Z,12.19
2023-01-13T01:05:39.801Z,12.13
2023-01-13T01:08:06.385Z,12.13
2023-01-13T01:10:32.951Z,12.12
2023-01-13T01:12:59.511Z,12.09
2023-01-13T01:15:26.729Z,12.09
2023-01-13T01:17:53.314Z,12.07
2023-01-13T01:20:20.058Z,12.04
2023-01-13T01:22:46.645Z,12.02
2023-01-13T01:25:13.181Z,12.00
2023-01-13T01:27:39.713Z,12.01
2023-01-13T01:30:06.862Z,11.97
2023-01-13T01:32:34.421Z,11.97
2023-01-13T01:35:00.925Z,12.00
2023-01-13T01:37:27.449Z,12.00
2023-01-13T01:39:53.973Z,12.02
2023-01-13T01:42:39.226Z,12.01
2023-01-13T01:45:19.732Z,12.03
2023-01-13T01:47:54.918Z,12.05
2023-01-13T01:50:21.665Z,12.05
2023-01-13T01:52:54.164Z,12.08
2023-01-13T01:55:24.251Z,12.04
2023-01-13T01:58:02.223Z,12.04
2023-01-13T02:00:29.652Z,11.99
2023-01-13T02:02:57.367Z,11.96
2023-01-13T02:05:24.112Z,11.99
2023-01-13T02:07:53.890Z,11.98
2023-01-13T02:10:23.653Z,11.95
2023-01-13T02:12:52.987Z,11.92
2023-01-13T02:15:42.501Z,11.97
2023-01-13T02:18:08.944Z,11.97
2023-01-13T02:21:06.704Z,11.90
2023-01-13T02:24:18.497Z,11.70
2023-01-13T02:27:08.757Z,11.38
2023-01-13T02:30:00.152Z,11.19
2023-01-13T02:32:34.406Z,11.13
2023-01-13T02:35:15.917Z,11.04
2023-01-13T02:37:44.627Z,10.99
2023-01-13T02:40:25.968Z,10.98
2023-01-13T02:43:18.349Z,10.95
2023-01-13T02:45:50.909Z,11.02
2023-01-13T02:48:20.720Z,11.02
2023-01-13T02:50:56.444Z,11.04
2023-01-13T02:53:35.762Z,11.07
2023-01-13T02:56:04.917Z,11.02
2023-01-13T02:58:35.305Z,11.08
2023-01-13T03:01:01.883Z,11.03
2023-01-13T03:03:28.307Z,11.08
2023-01-13T03:06:09.038Z,11.07
2023-01-13T03:08:59.011Z,11.11
2023-01-13T03:11:34.447Z,11.13
2023-01-13T03:14:16.499Z,11.11
2023-01-13T03:16:52.149Z,11.11
2023-01-13T03:19:30.700Z,11.11
2023-01-13T03:21:57.112Z,11.11
2023-01-13T03:24:35.037Z,11.10
2023-01-13T03:27:24.924Z,11.09
2023-01-13T03:30:00.313Z,11.08
2023-01-13T03:32:44.197Z,11.06
2023-01-13T03:35:25.431Z,11.01
2023-01-13T03:37:59.392Z,10.97
2023-01-13T03:40:29.904Z,10.93
2023-01-13T03:43:25.034Z,10.88
2023-01-13T03:45:57.221Z,10.84
2023-01-13T03:48:27.673Z,10.82
2023-01-13T03:50:57.355Z,10.84
2023-01-13T03:53:28.470Z,10.87
2023-01-13T03:56:01.656Z,10.90
2023-01-13T03:58:35.979Z,10.90
2023-01-13T04:01:08.735Z,10.91
2023-01-13T04:03:48.404Z,10.89
2023-01-13T04:06:23.575Z,10.88
2023-01-13T04:08:57.627Z,10.85
2023-01-13T04:11:34.902Z,10.80
2023-01-13T04:14:03.634Z,10.80
2023-01-13T04:16:30.146Z,10.70
2023-01-13T04:18:56.537Z,10.65
2023-01-13T04:21:23.018Z,10.62
2023-01-13T04:23:51.412Z,10.66
2023-01-13T04:26:19.676Z,10.64
2023-01-13T04:28:46.578Z,10.67
2023-01-13T04:31:13.054Z,10.66
2023-01-13T04:33:39.517Z,10.65
2023-01-13T04:36:06.255Z,10.64
2023-01-13T04:38:32.649Z,10.61
2023-01-13T04:40:59.021Z,10.61
2023-01-13T04:43:25.422Z,10.61
2023-01-13T04:45:51.932Z,10.61
2023-01-13T04:48:18.405Z,10.61
2023-01-13T04:50:44.769Z,10.60
2023-01-13T04:53:11.405Z,10.59
2023-01-13T04:55:37.865Z,10.58
2023-01-13T04:58:09.186Z,10.58
2023-01-13T05:00:36.380Z,10.56
2023-01-13T05:03:03.360Z,10.49
2023-01-13T05:05:30.788Z,10.49
2023-01-13T05:07:57.913Z,10.50
2023-01-13T05:10:24.424Z,10.50
2023-01-13T05:13:09.221Z,10.45
2023-01-13T05:15:54.506Z,10.42
2023-01-13T05:18:21.399Z,10.38
2023-01-13T05:20:47.818Z,10.33
2023-01-13T05:23:32.840Z,10.24
2023-01-13T05:25:59.296Z,10.17
2023-01-13T05:28:25.641Z,10.13
2023-01-13T05:30:52.604Z,10.10
2023-01-13T05:33:20.727Z,10.01
2023-01-13T05:35:48.717Z,9.91
2023-01-13T05:38:15.920Z,9.83
2023-01-13T05:41:01.024Z,9.76
2023-01-13T05:43:27.896Z,9.70
2023-01-13T05:46:06.937Z,9.68
2023-01-13T05:48:39.476Z,9.63
2023-01-13T05:51:08.784Z,9.63
2023-01-13T05:53:35.594Z,9.63
2023-01-13T05:56:06.074Z,9.62
2023-01-13T05:58:32.529Z,9.56
2023-01-13T06:01:00.839Z,9.55
2023-01-13T06:03:27.401Z,9.50
2023-01-13T06:05:58.728Z,9.44
2023-01-13T06:08:25.991Z,9.39
2023-01-13T06:10:52.501Z,9.39
2023-01-13T06:13:19.074Z,9.34
2023-01-13T06:15:45.563Z,9.34
2023-01-13T06:18:12.052Z,9.36
2023-01-13T06:20:38.488Z,9.36
2023-01-13T06:23:09.123Z,9.37
2023-01-13T06:25:51.832Z,9.34
2023-01-13T06:28:18.177Z,9.28
2023-01-13T06:30:57.618Z,9.24
2023-01-13T06:33:29.985Z,9.15
2023-01-13T06:36:03.164Z,9.14
2023-01-13T06:38:34.922Z,9.10
2023-01-13T06:41:01.558Z,9.07
2023-01-13T06:43:28.103Z,9.06
2023-01-13T06:45:56.004Z,9.05
2023-01-13T06:48:25.771Z,9.06
2023-01-13T06:50:52.247Z,9.06
2023-01-13T06:53:18.715Z,9.05
2023-01-13T06:55:45.091Z,9.04
2023-01-13T06:58:11.530Z,9.05
2023-01-13T07:00:38.034Z,9.07
2023-01-13T07:03:07.196Z,9.13
2023-01-13T07:05:33.686Z,9.17
2023-01-13T07:08:00.440Z,9.22
2023-01-13T07:10:26.878Z,9.29
2023-01-13T07:13:11.848Z,9.35
2023-01-13T07:15:38.274Z,9.41
2023-01-13T07:18:04.772Z,9.48
2023-01-13T07:20:31.742Z,9.52
2023-01-13T07:22:58.422Z,9.57
2023-01-13T07:25:25.052Z,9.62
2023-01-13T07:27:51.490Z,9.60
2023-01-13T07:30:18.188Z,9.61
2023-01-13T07:32:44.544Z,9.63
2023-01-13T07:35:10.980Z,9.63
2023-01-13T07:37:39.257Z,9.61
2023-01-13T07:40:06.598Z,9.65
2023-01-13T07:42:51.373Z,9.66
2023-01-13T07:45:17.728Z,9.64
2023-01-13T07:47:44.106Z,9.61
2023-01-13T07:50:11.035Z,9.57
2023-01-13T07:52:37.424Z,9.55
2023-01-13T07:55:04.010Z,9.59
2023-01-13T07:57:30.409Z,9.63
2023-01-13T07:59:56.822Z,9.66
2023-01-13T08:02:23.427Z,9.66
2023-01-13T08:04:49.875Z,9.72
2023-01-13T08:07:16.369Z,9.77
2023-01-13T08:09:42.732Z,9.82
2023-01-13T08:12:27.643Z,9.88
2023-01-13T08:14:54.303Z,9.90
2023-01-13T08:17:20.953Z,9.95
2023-01-13T08:19:47.472Z,10.00
2023-01-13T08:22:14.105Z,10.03
2023-01-13T08:24:40.532Z,10.05
2023-01-13T08:27:06.961Z,10.03
2023-01-13T08:29:33.352Z,9.93
2023-01-13T08:31:59.822Z,9.93
2023-01-13T08:34:26.278Z,10.05
2023-01-13T08:36:52.794Z,10.05
2023-01-13T08:39:19.204Z,10.14
2023-01-13T08:41:58.474Z,10.20
2023-01-13T08:44:30.940Z,10.27
2023-01-13T08:46:58.133Z,10.27
2023-01-13T08:49:25.741Z,10.31
2023-01-13T08:51:53.830Z,10.35
2023-01-13T08:54:20.390Z,10.36
2023-01-13T08:56:47.320Z,10.42
2023-01-13T08:59:19.135Z,10.46
2023-01-13T09:01:45.764Z,10.39
2023-01-13T09:04:21.056Z,10.34
2023-01-13T09:06:47.805Z,10.30
2023-01-13T09:09:14.302Z,10.34
2023-01-13T09:12:04.023Z,10.45
2023-01-13T09:14:33.776Z,10.50
2023-01-13T09:17:01.183Z,10.61
2023-01-13T09:19:28.708Z,10.69
2023-01-13T09:21:56.737Z,10.77
2023-01-13T09:24:24.032Z,10.82
2023-01-13T09:26:50.502Z,10.85
2023-01-13T09:29:17.271Z,10.81
2023-01-13T09:31:44.352Z,10.75
2023-01-13T09:34:35.823Z,10.83
2023-01-13T09:37:02.748Z,10.74
2023-01-13T09:39:29.221Z,10.69
2023-01-13T09:42:17.463Z,10.77
2023-01-13T09:45:19.901Z,10.40
2023-01-13T09:48:31.274Z,10.31
2023-01-13T09:51:14.651Z,10.48
2023-01-13T09:53:50.986Z,10.61
2023-01-13T09:56:17.417Z,10.73
2023-01-13T09:58:47.044Z,10.75
2023-01-13T10:01:32.501Z,11.02
2023-01-13T10:04:13.973Z,11.02
2023-01-13T10:06:44.473Z,11.37
2023-01-13T10:09:22.512Z,11.73
2023-01-13T10:12:09.354Z,11.92
2023-01-13T10:14:49.913Z,12.01
2023-01-13T10:17:28.625Z,11.83
2023-01-13T10:20:16.263Z,11.89
2023-01-13T10:23:01.783Z,12.42
2023-01-13T10:25:42.310Z,12.50
2023-01-13T10:28:14.957Z,12.36
2023-01-13T10:30:46.676Z,12.59
2023-01-13T10:33:19.015Z,12.56
2023-01-13T10:35:53.398Z,12.34
2023-01-13T10:38:36.080Z,12.35
2023-01-13T10:41:04.349Z,12.58
2023-01-13T10:43:31.442Z,12.68
2023-01-13T10:46:07.248Z,12.59
2023-01-13T10:48:40.742Z,12.90
2023-01-13T10:51:26.872Z,13.00
2023-01-13T10:54:19.135Z,13.32
2023-01-13T10:56:46.085Z,13.35
2023-01-13T10:59:24.061Z,13.50
2023-01-13T11:02:24.367Z,13.88
2023-01-13T11:04:58.083Z,13.99
2023-01-13T11:07:31.757Z,14.28
2023-01-13T11:10:16.854Z,14.42
2023-01-13T11:13:08.341Z,14.48
2023-01-13T11:15:57.836Z,14.96
2023-01-13T11:18:51.687Z,15.33
2023-01-13T11:21:27.984Z,15.80
2023-01-13T11:24:20.065Z,15.57
2023-01-13T11:26:58.032Z,15.82
2023-01-13T11:29:32.088Z,15.75
2023-01-13T11:32:10.544Z,15.63
2023-01-13T11:34:40.422Z,15.73
2023-01-13T11:37:25.157Z,15.44
2023-01-13T11:40:01.417Z,14.95
2023-01-13T11:42:50.713Z,14.88
2023-01-13T11:45:35.601Z,14.41
2023-01-13T11:48:02.969Z,13.98
2023-01-13T11:50:48.203Z,13.70
2023-01-13T11:53:31.207Z,13.57
2023-01-13T11:56:17.717Z,13.53
2023-01-13T11:59:16.147Z,13.39
2023-01-13T12:01:51.742Z,13.46
2023-01-13T12:04:46.274Z,13.54
2023-01-13T12:07:38.828Z,14.07
2023-01-13T12:10:13.077Z,14.23
2023-01-13T12:13:03.467Z,13.96
2023-01-13T12:15:35.785Z,13.62
2023-01-13T12:18:26.400Z,13.11
2023-01-13T12:21:15.285Z,12.49
2023-01-13T12:23:51.493Z,11.78
2023-01-13T12:26:18.023Z,11.89
2023-01-13T12:28:51.428Z,12.23
2023-01-13T12:31:19.470Z,12.45
2023-01-13T12:34:09.210Z,12.80
2023-01-13T12:36:54.071Z,13.08
2023-01-13T12:39:28.315Z,13.89
2023-01-13T12:42:30.186Z,14.60
2023-01-13T12:45:11.912Z,14.68
2023-01-13T12:47:40.020Z,15.11
2023-01-13T12:50:27.995Z,15.09
2023-01-13T12:52:58.391Z,14.92
2023-01-13T12:55:27.162Z,14.56
2023-01-13T12:58:05.422Z,14.97
2023-01-13T13:00:53.722Z,15.15
2023-01-13T13:03:30.644Z,15.45
2023-01-13T13:06:06.102Z,15.37
2023-01-13T13:09:26.381Z,15.04
2023-01-13T13:11:58.456Z,15.28
2023-01-13T13:14:36.816Z,15.97
2023-01-13T13:17:25.532Z,16.36
2023-01-13T13:19:52.066Z,16.40
2023-01-13T13:22:21.244Z,16.58
2023-01-13T13:24:57.597Z,16.97
2023-01-13T13:28:14.574Z,17.30
2023-01-13T13:30:53.476Z,17.79
2023-01-13T13:33:44.341Z,16.73
2023-01-13T13:36:39.430Z,17.15
2023-01-13T13:39:40.370Z,17.48
2023-01-13T13:42:39.114Z,17.32
2023-01-13T13:45:42.215Z,16.50
2023-01-13T13:48:30.621Z,17.58
2023-01-13T13:51:03.644Z,17.99
2023-01-13T13:53:35.519Z,17.52
2023-01-13T13:56:07.403Z,17.38
2023-01-13T13:58:36.924Z,17.21
2023-01-13T14:01:04.454Z,16.90
2023-01-13T14:03:34.368Z,16.80
2023-01-13T14:06:06.738Z,16.48
2023-01-13T14:08:39.506Z,15.56
2023-01-13T14:11:38.386Z,14.66
2023-01-13T14:14:12.407Z,14.56
2023-01-13T14:16:40.599Z,14.65
2023-01-13T14:19:29.414Z,14.70
2023-01-13T14:21:56.754Z,14.69
2023-01-13T14:24:24.967Z,14.73
2023-01-13T14:26:53.106Z,14.85
2023-01-13T14:29:24.736Z,14.18
2023-01-13T14:31:53.659Z,14.18
2023-01-13T14:34:32.147Z,14.28
2023-01-13T14:37:00.564Z,14.23
2023-01-13T14:39:34.136Z,14.29
2023-01-13T14:42:00.654Z,14.45
2023-01-13T14:44:30.781Z,13.77
2023-01-13T14:47:25.366Z,13.89
2023-01-13T14:50:18.579Z,14.10
2023-01-13T14:52:50.715Z,13.87
2023-01-13T14:55:30.933Z,14.03
2023-01-13T14:58:23.747Z,13.52
2023-01-13T15:00:51.781Z,13.63
2023-01-13T15:03:21.601Z,13.12
2023-01-13T15:05:53.075Z,13.14
2023-01-13T15:08:27.880Z,12.85
2023-01-13T15:10:59.663Z,12.79
2023-01-13T15:13:29.187Z,12.47
2023-01-13T15:15:57.934Z,12.53
2023-01-13T15:18:24.572Z,12.07
2023-01-13T15:20:51.237Z,12.01
2023-01-13T15:23:18.739Z,11.49
2023-01-13T15:25:46.513Z,11.71
2023-01-13T15:28:19.998Z,11.76
2023-01-13T15:30:47.471Z,11.76
2023-01-13T15:33:15.103Z,11.80
2023-01-13T15:35:44.849Z,11.73
2023-01-13T15:38:13.453Z,11.78
2023-01-13T15:40:40.816Z,11.79
2023-01-13T15:43:32.111Z,11.65
2023-01-13T15:46:17.230Z,11.61
2023-01-13T15:48:43.748Z,11.53
2023-01-13T15:51:12.301Z,11.56
2023-01-13T15:53:40.018Z,11.57
2023-01-13T15:56:26.659Z,11.46
2023-01-13T15:58:53.455Z,11.36
2023-01-13T16:01:20.303Z,11.35
2023-01-13T16:03:46.721Z,11.22
2023-01-13T16:06:18.372Z,11.21
2023-01-13T16:08:45.027Z,11.12
2023-01-13T16:11:11.960Z,10.99
2023-01-13T16:13:38.417Z,11.06
2023-01-13T16:16:15.118Z,11.07
2023-01-13T16:18:41.542Z,11.02
2023-01-13T16:21:12.184Z,11.02
2023-01-13T16:23:38.592Z,11.09
2023-01-13T16:26:06.491Z,11.06
2023-01-13T16:28:35.356Z,11.05
2023-01-13T16:31:15.924Z,10.99
2023-01-13T16:33:42.314Z,11.04
2023-01-13T16:36:19.431Z,10.92
2023-01-13T16:38:46.719Z,10.82
2023-01-13T16:41:13.149Z,10.79
2023-01-13T16:43:40.856Z,10.72
2023-01-13T16:46:27.877Z,10.74
2023-01-13T16:49:01.856Z,10.75
2023-01-13T16:51:28.324Z,10.79
2023-01-13T16:53:54.715Z,10.71
2023-01-13T16:56:33.603Z,10.69
2023-01-13T16:59:05.943Z,10.63
2023-01-13T17:01:34.792Z,10.60
2023-01-13T17:04:01.543Z,10.58
2023-01-13T17:06:41.533Z,10.66
2023-01-13T17:09:15.467Z,10.68
2023-01-13T17:11:41.849Z,10.50
2023-01-13T17:14:18.603Z,10.53
2023-01-13T17:16:45.634Z,10.55
2023-01-13T17:19:12.406Z,10.63
2023-01-13T17:21:38.829Z,10.61
2023-01-13T17:24:09.466Z,10.64
2023-01-13T17:26:38.195Z,10.64
2023-01-13T17:29:08.641Z,10.71
2023-01-13T17:31:35.997Z,10.68
2023-01-13T17:34:03.745Z,10.70
2023-01-13T17:36:30.878Z,10.63
2023-01-13T17:38:57.660Z,10.62
2023-01-13T17:41:25.652Z,10.62
2023-01-13T17:43:52.994Z,10.66
2023-01-13T17:46:20.405Z,10.54
2023-01-13T17:48:47.093Z,10.57
2023-01-13T17:51:15.677Z,10.50
2023-01-13T17:53:44.144Z,10.44
2023-01-13T17:56:11.527Z,10.45
2023-01-13T17:58:38.681Z,10.52
2023-01-13T18:01:10.484Z,10.49
2023-01-13T18:03:38.288Z,10.42
2023-01-13T18:06:14.430Z,10.41
2023-01-13T18:08:40.994Z,10.40
2023-01-13T18:11:07.440Z,10.44
2023-01-13T18:13:34.928Z,10.44
2023-01-13T18:16:07.071Z,10.36
2023-01-13T18:18:34.368Z,10.29
2023-01-13T18:21:19.998Z,10.30
2023-01-13T18:24:05.070Z,10.33
2023-01-13T18:26:50.074Z,10.29
2023-01-13T18:29:16.705Z,10.33
2023-01-13T18:31:43.219Z,10.37
2023-01-13T18:34:09.826Z,10.37
2023-01-13T18:36:37.387Z,10.34
2023-01-13T18:39:04.401Z,10.30
2023-01-13T18:41:49.634Z,10.31
2023-01-13T18:44:16.086Z,10.29
2023-01-13T18:46:42.466Z,10.22
2023-01-13T18:49:08.863Z,10.24
2023-01-13T18:51:35.247Z,10.25
2023-01-13T18:54:01.657Z,10.15
2023-01-13T18:56:28.029Z,10.19
2023-01-13T18:58:54.536Z,10.27
2023-01-13T19:01:25.548Z,10.32
2023-01-13T19:04:00.161Z,10.31
2023-01-13T19:06:27.725Z,10.23
2023-01-13T19:08:55.871Z,10.18
2023-01-13T19:11:23.678Z,10.11
2023-01-13T19:13:51.503Z,10.18
2023-01-13T19:16:21.322Z,10.15
2023-01-13T19:18:49.008Z,10.07
2023-01-13T19:21:15.650Z,10.09
2023-01-13T19:23:42.084Z,10.02
2023-01-13T19:26:11.001Z,10.06
2023-01-13T19:28:41.680Z,10.07
2023-01-13T19:31:11.106Z,10.09
2023-01-13T19:33:39.715Z,10.10
2023-01-13T19:36:07.669Z,10.08
2023-01-13T19:38:36.427Z,10.10
2023-01-13T19:41:07.261Z,9.99
2023-01-13T19:43:52.127Z,9.94
2023-01-13T19:46:18.573Z,9.91
2023-01-13T19:48:44.930Z,9.98
2023-01-13T19:51:14.309Z,10.02
2023-01-13T19:53:41.679Z,10.03
2023-01-13T19:56:12.734Z,10.03
2023-01-13T19:58:39.125Z,9.92
2023-01-13T20:01:09.749Z,9.93
2023-01-13T20:03:37.639Z,9.92
2023-01-13T20:06:08.820Z,9.94
2023-01-13T20:08:35.209Z,9.98
2023-01-13T20:11:21.227Z,10.03
2023-01-13T20:13:48.365Z,9.97
2023-01-13T20:16:14.946Z,9.93
2023-01-13T20:18:41.355Z,9.79
2023-01-13T20:21:07.999Z,9.77
2023-01-13T20:23:34.419Z,9.71
2023-01-13T20:26:01.470Z,9.68
2023-01-13T20:28:27.962Z,9.70
2023-01-13T20:30:54.417Z,9.68
2023-01-13T20:33:20.775Z,9.68
2023-01-13T20:35:56.636Z,9.72
2023-01-13T20:38:23.047Z,9.70
2023-01-13T20:40:58.591Z,9.71
2023-01-13T20:43:25.021Z,9.70
2023-01-13T20:45:51.406Z,9.72
2023-01-13T20:48:17.795Z,9.73
2023-01-13T20:50:44.184Z,9.65
2023-01-13T20:53:10.568Z,9.63
2023-01-13T20:55:39.748Z,9.68
2023-01-13T20:58:06.119Z,9.65
2023-01-13T21:00:32.563Z,9.58
2023-01-13T21:02:59.876Z,9.58
2023-01-13T21:05:26.744Z,9.58
2023-01-13T21:07:53.122Z,9.57
2023-01-13T21:10:19.659Z,9.58
2023-01-13T21:13:04.985Z,9.56
2023-01-13T21:15:31.352Z,9.54
2023-01-13T21:18:16.456Z,9.52
2023-01-13T21:20:42.951Z,9.51
2023-01-13T21:23:10.810Z,9.53
2023-01-13T21:25:39.604Z,9.52
2023-01-13T21:28:06.680Z,9.53
2023-01-13T21:30:33.983Z,9.52
2023-01-13T21:33:00.871Z,9.51
2023-01-13T21:35:27.811Z,9.49
2023-01-13T21:37:54.308Z,9.45
2023-01-13T21:40:21.148Z,9.46
2023-01-13T21:43:06.098Z,9.50
2023-01-13T21:45:51.131Z,9.54
2023-01-13T21:48:17.645Z,9.55
2023-01-13T21:50:45.249Z,9.58
2023-01-13T21:53:11.826Z,9.54
2023-01-13T21:55:38.342Z,9.53
2023-01-13T21:58:11.527Z,9.54
2023-01-13T22:00:39.386Z,9.52
2023-01-13T22:03:07.711Z,9.52
2023-01-13T22:05:34.267Z,9.52
2023-01-13T22:08:00.684Z,9.50
2023-01-13T22:10:30.001Z,9.48
2023-01-13T22:12:58.710Z,9.46
2023-01-13T22:15:28.014Z,9.45
2023-01-13T22:17:55.448Z,9.44
2023-01-13T22:20:22.651Z,9.42
2023-01-13T22:22:49.492Z,9.45
2023-01-13T22:25:16.843Z,9.39
2023-01-13T22:27:44.660Z,9.38
2023-01-13T22:30:14.107Z,9.39
2023-01-13T22:32:40.666Z,9.34
2023-01-13T22:35:08.964Z,9.30
2023-01-13T22:37:35.566Z,9.27
2023-01-13T22:40:02.817Z,9.21
2023-01-13T22:42:29.203Z,9.23
2023-01-13T22:44:55.590Z,9.29
2023-01-13T22:47:21.974Z,9.34
2023-01-13T22:49:49.043Z,9.37
2023-01-13T22:52:16.156Z,9.38
2023-01-13T22:54:42.760Z,9.40
2023-01-13T22:57:09.423Z,9.38
2023-01-13T22:59:35.850Z,9.41
2023-01-13T23:02:02.306Z,9.37
2023-01-13T23:04:28.731Z,9.26
2023-01-13T23:06:55.206Z,9.24
2023-01-13T23:09:21.607Z,9.17
2023-01-13T23:11:48.097Z,9.17
2023-01-13T23:14:14.507Z,9.12
2023-01-13T23:16:41.174Z,9.12
2023-01-13T23:19:08.250Z,9.04
2023-01-13T23:21:37.632Z,9.04
2023-01-13T23:24:05.575Z,8.99
2023-01-13T23:26:33.135Z,8.97
2023-01-13T23:29:07.251Z,8.89
2023-01-13T23:31:34.590Z,8.85
2023-01-13T23:34:01.011Z,8.86
2023-01-13T23:36:28.501Z,8.87
2023-01-13T23:38:56.894Z,8.84
2023-01-13T23:41:25.532Z,8.83
2023-01-13T23:44:00.232Z,8.86
2023-01-13T23:46:28.748Z,8.85
2023-01-13T23:48:55.495Z,8.84
2023-01-13T23:51:22.964Z,8.84
2023-01-13T23:53:50.400Z,8.86
2023-01-13T23:56:25.070Z,8.83
2023-01-13T23:58:52.198Z,8.82
